Time;durP1;ratioP1;P1;durP2;ratioP2;P2;SDS_P1;SDS_P2;PMS_P1;PMS_P2;Temp;Humidity;BMP_temperature;BMP_pressure;BME280_temperature;BME280_humidity;BME280_pressure;Samples;Min_cycle;Max_cycle;Signal;HPM_P1;HPM_P2
2022/08/29 00:02:06;;;;;;;;;4.00;2.25;;;;;23.13;32.56;101260.22;5101656;27;45284;-62
2022/08/29 00:04:32;;;;;;;;;3.00;3.00;;;;;23.09;32.74;101250.59;5121411;27;45287;-62
2022/08/29 00:06:57;;;;;;;;;2.75;2.75;;;;;23.10;32.32;101255.00;5105402;27;45452;-62
2022/08/29 00:09:22;;;;;;;;;3.00;3.00;;;;;23.10;32.86;101252.34;5123510;27;47101;-62
2022/08/29 00:11:48;;;;;;;;;3.00;3.00;;;;;23.08;32.57;101248.00;5123510;27;48167;-62
2022/08/29 00:14:13;;;;;;;;;3.00;3.00;;;;;23.07;32.44;101255.22;5123865;27;45339;-63
2022/08/29 00:16:39;;;;;;;;;3.50;3.50;;;;;23.07;32.71;101254.31;5123652;27;45479;-62
2022/08/29 00:19:04;;;;;;;;;4.50;4.00;;;;;23.04;32.45;101252.69;5122426;27;45951;-62
2022/08/29 00:21:29;;;;;;;;;3.00;3.00;;;;;22.97;32.36;101235.28;5123530;27;45354;-62
2022/08/29 00:23:55;;;;;;;;;2.75;1.75;;;;;23.03;32.44;101251.84;5123775;27;45273;-62
2022/08/29 00:26:20;;;;;;;;;2.50;2.50;;;;;23.00;32.36;101243.97;5123400;27;45507;-62
2022/08/29 00:28:46;;;;;;;;;3.00;2.00;;;;;23.00;32.67;101245.78;5123459;27;45310;-62
2022/08/29 00:31:11;;;;;;;;;3.00;2.00;;;;;23.00;32.76;101246.63;5105013;27;45286;-62
2022/08/29 00:33:37;;;;;;;;;1.50;1.50;;;;;22.99;32.70;101241.38;5123808;27;45341;-62
2022/08/29 00:36:02;;;;;;;;;3.00;3.00;;;;;22.96;32.47;101250.47;5123400;27;45541;-62
2022/08/29 00:38:28;;;;;;;;;3.75;3.00;;;;;22.95;33.00;101250.56;5123000;27;46172;-62
2022/08/29 00:40:55;;;;;;;;;3.00;3.00;;;;;22.94;32.61;101244.31;5123213;27;45340;-62
2022/08/29 00:43:24;;;;;;;;;3.50;2.50;;;;;22.92;33.10;101254.28;5123466;27;45168;-62
2022/08/29 00:46:04;;;;;;;;;4.00;4.00;;;;;22.92;32.68;101250.72;5123104;27;45295;-62
2022/08/29 00:48:32;;;;;;;;;1.50;1.50;;;;;22.91;32.87;101249.03;5122966;27;45510;-62
2022/08/29 00:51:02;;;;;;;;;5.25;3.00;;;;;22.88;32.80;101242.88;5122906;27;45246;-62
2022/08/29 00:53:49;;;;;;;;;3.00;3.00;;;;;22.87;32.86;101245.66;5123625;27;45362;-62
2022/08/29 00:56:16;;;;;;;;;2.50;2.50;;;;;22.86;33.00;101249.28;5122830;27;45246;-62
2022/08/29 00:59:07;;;;;;;;;2.00;1.00;;;;;22.83;32.76;101249.44;5122917;27;45234;-62
2022/08/29 01:01:33;;;;;;;;;2.00;2.00;;;;;22.81;33.08;101256.72;5123125;27;45440;-62
2022/08/29 01:03:59;;;;;;;;;4.00;1.50;;;;;22.77;33.00;101247.16;5122845;27;45374;-61
2022/08/29 01:06:26;;;;;;;;;2.25;1.75;;;;;22.76;33.16;101261.47;5122932;27;45173;-61
2022/08/29 01:08:52;;;;;;;;;4.25;3.00;;;;;22.75;32.92;101259.75;5122504;27;45230;-61
2022/08/29 01:14:02;;;;;;;;;1.00;1.00;;;;;22.70;33.15;101258.22;5122792;27;45500;-61
2022/08/29 01:16:29;;;;;;;;;4.00;2.50;;;;;22.65;33.30;101249.53;5122210;27;45492;-62
2022/08/29 01:19:00;;;;;;;;;1.00;1.00;;;;;22.65;33.28;101254.91;5121267;27;47383;-62
2022/08/29 01:21:48;;;;;;;;;2.00;2.00;;;;;22.62;33.26;101249.72;5122314;27;45235;-62
2022/08/29 01:24:25;;;;;;;;;3.50;3.50;;;;;22.59;33.33;101244.56;5122535;27;45227;-61
2022/08/29 01:26:51;;;;;;;;;4.00;3.00;;;;;22.58;33.19;101239.28;5122332;27;45433;-61
2022/08/29 01:29:16;;;;;;;;;2.00;2.00;;;;;22.55;33.38;101241.19;5122339;27;45802;-60
2022/08/29 01:31:44;;;;;;;;;4.50;1.50;;;;;22.53;32.97;101239.56;5122505;27;45406;-60
2022/08/29 01:34:11;;;;;;;;;3.00;2.00;;;;;22.51;32.91;101241.44;5122756;27;45309;-60
2022/08/29 01:36:54;;;;;;;;;3.00;1.50;;;;;22.44;32.86;101242.75;5122222;27;45457;-60
2022/08/29 01:39:25;;;;;;;;;4.00;3.00;;;;;22.45;33.24;101241.78;5121893;27;47052;-60
2022/08/29 01:41:51;;;;;;;;;3.75;3.25;;;;;22.43;33.54;101244.56;5121774;27;45317;-60
2022/08/29 01:44:19;;;;;;;;;4.00;2.00;;;;;22.42;33.18;101247.34;5122202;27;45348;-61
2022/08/29 01:46:50;;;;;;;;;1.75;1.50;;;;;22.39;33.39;101246.53;5103898;27;45276;-60
2022/08/29 01:49:18;;;;;;;;;3.00;2.00;;;;;22.36;33.29;101233.31;5121959;27;46225;-60
2022/08/29 01:51:44;;;;;;;;;2.75;2.75;;;;;22.34;33.24;101243.22;5122137;27;45357;-60
2022/08/29 01:54:11;;;;;;;;;2.00;1.00;;;;;22.32;33.77;101228.22;5121550;27;45281;-60
2022/08/29 01:56:40;;;;;;;;;3.00;2.50;;;;;22.31;33.54;101231.84;5122203;27;45161;-60
2022/08/29 01:59:09;;;;;;;;;2.00;1.00;;;;;22.28;33.39;101229.34;5121475;27;46267;-60
2022/08/29 02:01:37;;;;;;;;;4.00;2.25;;;;;22.23;33.28;101218.88;5122016;27;45185;-60
2022/08/29 02:04:04;;;;;;;;;1.75;1.75;;;;;22.21;33.38;101221.66;5121809;27;45173;-60
2022/08/29 02:06:30;;;;;;;;;2.00;2.00;;;;;22.16;33.95;101218.38;5121891;27;45333;-60
2022/08/29 02:08:55;;;;;;;;;1.00;1.00;;;;;22.17;33.67;101213.88;5121600;27;45387;-60
2022/08/29 02:11:22;;;;;;;;;3.00;2.00;;;;;22.16;33.28;101218.38;5121961;27;45258;-60
2022/08/29 02:13:54;;;;;;;;;1.75;1.75;;;;;22.15;33.79;101213.06;5121735;27;45430;-60
2022/08/29 02:16:21;;;;;;;;;1.50;1.00;;;;;22.14;34.03;101222.94;5121918;27;45416;-60
2022/08/29 02:18:46;;;;;;;;;0.25;0.25;;;;;22.12;33.62;101222.13;5121507;27;46163;-60
2022/08/29 02:21:15;;;;;;;;;2.75;1.25;;;;;22.11;33.71;101217.72;5103131;27;45346;-60
2022/08/29 02:23:41;;;;;;;;;3.25;1.75;;;;;22.07;33.65;101222.41;5121660;27;45332;-60
2022/08/29 02:26:06;;;;;;;;;2.50;2.50;;;;;22.07;33.58;101225.09;5121712;27;45270;-60
2022/08/29 02:28:33;;;;;;;;;3.00;1.75;;;;;22.07;33.77;101224.22;5120234;27;46061;-60
2022/08/29 02:30:58;;;;;;;;;1.25;1.25;;;;;22.04;33.61;101219.88;5120282;27;45249;-60
2022/08/29 02:33:25;;;;;;;;;2.00;2.00;;;;;22.05;33.89;101226.97;5121580;27;45258;-60
2022/08/29 02:35:52;;;;;;;;;2.00;2.00;;;;;22.04;33.83;101227.06;5120365;27;45552;-60
2022/08/29 02:38:18;;;;;;;;;1.00;1.00;;;;;22.04;34.13;101224.38;5120986;27;46329;-60
2022/08/29 02:40:46;;;;;;;;;1.00;1.00;;;;;22.02;33.87;101221.78;5121263;27;45259;-60
2022/08/29 02:43:11;;;;;;;;;1.00;1.00;;;;;22.02;34.10;101224.44;5121124;27;45385;-60
2022/08/29 02:45:39;;;;;;;;;1.50;1.50;;;;;22.02;34.12;101219.09;5121407;27;45669;-60
2022/08/29 02:48:06;;;;;;;;;2.50;1.50;;;;;22.02;33.62;101221.78;5102639;27;47302;-60
2022/08/29 02:50:32;;;;;;;;;1.50;1.50;;;;;21.99;33.79;101216.59;5121210;27;45344;-60
2022/08/29 02:52:57;;;;;;;;;1.00;1.00;;;;;22.02;33.94;101226.28;5121306;27;45320;-60
2022/08/29 02:55:23;;;;;;;;;2.50;1.50;;;;;22.02;34.03;101227.13;5120987;27;45365;-60
2022/08/29 02:57:49;;;;;;;;;3.75;2.75;;;;;21.99;34.11;101221.97;5121094;27;45391;-60
2022/08/29 03:00:18;;;;;;;;;1.00;1.00;;;;;21.96;34.18;101213.22;5120728;27;45331;-60
2022/08/29 03:02:46;;;;;;;;;2.00;0.75;;;;;21.97;33.88;101218.50;5121358;27;45227;-60
2022/08/29 03:05:12;;;;;;;;;2.00;2.00;;;;;21.96;34.09;101218.59;5120949;27;45303;-60
2022/08/29 03:07:37;;;;;;;;;3.25;2.00;;;;;21.95;33.87;101214.16;5120957;27;46064;-60
2022/08/29 03:10:03;;;;;;;;;1.00;1.00;;;;;21.93;34.36;101208.91;5120686;27;45382;-60
2022/08/29 03:12:28;;;;;;;;;2.00;2.00;;;;;21.89;33.86;101205.53;5121231;27;45479;-60
2022/08/29 03:14:54;;;;;;;;;2.50;1.50;;;;;21.92;34.10;101212.53;5120962;27;45311;-60
2022/08/29 03:17:19;;;;;;;;;2.75;2.00;;;;;21.90;34.49;101209.09;5120840;27;46228;-60
2022/08/29 03:19:44;;;;;;;;;2.00;2.00;;;;;21.89;33.90;101213.56;5120950;27;48439;-60
2022/08/29 03:22:10;;;;;;;;;3.00;2.25;;;;;21.87;34.14;101199.44;5121156;27;45219;-60
2022/08/29 03:24:36;;;;;;;;;0.25;0.25;;;;;21.86;34.14;101210.19;5120816;27;45406;-60
2022/08/29 03:27:02;;;;;;;;;3.25;2.00;;;;;21.84;34.30;101217.44;5120679;27;46317;-60
2022/08/29 03:29:27;;;;;;;;;2.50;2.00;;;;;21.83;34.41;101208.53;5120812;27;45255;-60
2022/08/29 03:31:57;;;;;;;;;0.50;0.50;;;;;21.82;34.42;101214.00;5120886;27;45221;-60
2022/08/29 03:34:26;;;;;;;;;1.00;1.00;;;;;21.80;34.55;101208.72;5120356;27;45567;-60
2022/08/29 03:36:51;;;;;;;;;1.50;1.50;;;;;21.78;34.18;101204.41;5120413;27;46291;-61
2022/08/29 03:39:17;;;;;;;;;2.50;2.50;;;;;21.77;34.16;101202.69;5122339;27;45258;-60
2022/08/29 03:41:42;;;;;;;;;1.25;1.25;;;;;21.75;34.49;101202.75;5124576;27;45201;-60
2022/08/29 03:44:07;;;;;;;;;3.00;2.00;;;;;21.68;34.50;101185.31;5124397;27;45454;-60
2022/08/29 03:46:35;;;;;;;;;4.25;2.00;;;;;21.73;34.24;101204.66;5124183;27;47057;-60
2022/08/29 03:49:00;;;;;;;;;4.00;1.00;;;;;21.73;34.74;101204.66;5124228;27;45413;-60
2022/08/29 03:51:26;;;;;;;;;3.00;1.00;;;;;21.72;34.14;101201.13;5124229;27;45430;-60
2022/08/29 03:53:51;;;;;;;;;2.50;2.00;;;;;21.71;34.87;101204.75;5124251;27;45274;-62
2022/08/29 03:56:17;;;;;;;;;1.25;1.25;;;;;21.70;34.43;101199.47;5123945;27;47030;-61
2022/08/29 03:58:42;;;;;;;;;2.00;1.00;;;;;21.71;34.80;101202.06;5123952;27;45349;-61
2022/08/29 04:01:08;;;;;;;;;2.00;1.50;;;;;21.70;34.23;101203.00;5124107;27;45305;-62
2022/08/29 04:03:34;;;;;;;;;3.25;2.00;;;;;21.69;34.84;101209.28;5124056;27;45283;-61
2022/08/29 04:06:00;;;;;;;;;1.00;1.00;;;;;21.68;34.94;101204.03;5123685;27;45241;-62
2022/08/29 04:08:25;;;;;;;;;3.00;1.75;;;;;21.66;34.30;101209.47;5123820;27;45230;-62
2022/08/29 04:10:50;;;;;;;;;3.25;2.75;;;;;21.64;34.31;101203.34;5123780;27;45227;-62
2022/08/29 04:13:16;;;;;;;;;5.00;5.00;;;;;21.65;34.33;101212.22;5123858;27;45432;-62
2022/08/29 04:15:42;;;;;;;;;2.50;2.50;;;;;21.63;34.82;101209.63;5123341;27;54523;-62
2022/08/29 04:18:09;;;;;;;;;6.50;6.50;;;;;21.62;34.96;101207.88;5123765;27;45413;-62
2022/08/29 04:20:43;;;;;;;;;2.00;2.00;;;;;21.57;34.65;101201.91;5123871;27;45384;-62
2022/08/29 04:23:11;;;;;;;;;3.00;2.50;;;;;21.59;34.59;101210.75;5123567;27;45516;-62
2022/08/29 04:25:38;;;;;;;;;2.00;2.00;;;;;21.54;35.01;101200.25;5104835;27;46312;-62
2022/08/29 04:28:11;;;;;;;;;0.00;0.00;;;;;21.55;34.49;101207.34;5123239;27;45342;-62
2022/08/29 04:30:38;;;;;;;;;3.75;2.00;;;;;21.54;34.53;101204.75;5123618;27;45313;-62
2022/08/29 04:33:04;;;;;;;;;2.00;2.00;;;;;21.52;34.60;101217.31;5123203;27;45634;-62
2022/08/29 04:35:29;;;;;;;;;2.50;2.50;;;;;21.49;34.76;101207.66;5123434;27;45428;-62
2022/08/29 04:37:55;;;;;;;;;2.50;1.50;;;;;21.43;35.08;101203.50;5123051;27;45294;-62
2022/08/29 04:40:21;;;;;;;;;3.75;2.75;;;;;21.43;34.71;101216.88;5123440;27;45257;-62
2022/08/29 04:42:48;;;;;;;;;3.50;2.25;;;;;21.43;34.96;101226.69;5123248;27;45387;-62
2022/08/29 04:45:17;;;;;;;;;2.00;2.00;;;;;21.39;34.72;101223.31;5123133;27;46617;-62
2022/08/29 04:47:44;;;;;;;;;2.25;2.25;;;;;21.40;34.93;101225.03;5122547;27;45329;-62
2022/08/29 04:50:13;;;;;;;;;5.00;2.50;;;;;21.37;34.72;101230.56;5122406;27;45330;-62
2022/08/29 04:52:39;;;;;;;;;1.75;1.75;;;;;21.36;35.05;101220.81;5123076;27;45330;-62
2022/08/29 04:55:06;;;;;;;;;3.75;2.00;;;;;21.34;35.15;101220.00;5122808;27;46168;-62
2022/08/29 04:57:33;;;;;;;;;3.00;2.50;;;;;21.34;35.32;101230.69;5122846;27;45322;-62
2022/08/29 04:59:58;;;;;;;;;1.00;1.00;;;;;21.29;35.26;101230.06;5123087;27;45456;-62
2022/08/29 05:02:25;;;;;;;;;3.25;2.25;;;;;21.32;34.90;101242.41;5122820;27;45353;-62
2022/08/29 05:04:51;;;;;;;;;2.25;1.50;;;;;21.29;34.82;101242.59;5122946;27;46362;-62
2022/08/29 05:07:22;;;;;;;;;2.00;2.00;;;;;21.27;34.81;101248.88;5122683;27;45177;-62
2022/08/29 05:09:49;;;;;;;;;7.00;5.25;;;;;21.25;34.80;101245.41;5122770;27;45332;-61
2022/08/29 05:12:15;;;;;;;;;2.25;2.25;;;;;21.24;35.49;101242.81;5122589;27;45242;-62
2022/08/29 05:14:40;;;;;;;;;3.00;1.00;;;;;21.23;35.02;101243.75;5122576;27;46237;-62
2022/08/29 05:17:06;;;;;;;;;2.75;2.00;;;;;21.21;34.91;101254.53;5122436;27;45221;-62
2022/08/29 05:19:31;;;;;;;;;2.00;2.00;;;;;21.18;35.47;101248.47;5123087;27;45298;-61
2022/08/29 05:21:57;;;;;;;;;2.00;2.00;;;;;21.18;34.93;101251.13;5122589;27;45270;-61
2022/08/29 05:24:23;;;;;;;;;3.00;3.00;;;;;21.15;35.22;101245.97;5104215;27;46158;-61
2022/08/29 05:26:50;;;;;;;;;2.25;2.00;;;;;21.11;35.15;101246.09;5122542;27;45275;-60
2022/08/29 05:29:15;;;;;;;;;2.25;2.25;;;;;21.13;35.42;101258.53;5122475;27;45328;-60
2022/08/29 05:31:41;;;;;;;;;3.00;2.00;;;;;21.10;35.46;101262.22;5122313;27;45389;-60
2022/08/29 05:34:09;;;;;;;;;3.50;1.00;;;;;21.09;35.70;101258.69;5104135;27;46305;-61
2022/08/29 05:36:34;;;;;;;;;2.00;2.00;;;;;21.10;35.38;101260.41;5121071;27;45318;-60
2022/08/29 05:39:00;;;;;;;;;0.25;0.25;;;;;21.08;35.86;101270.31;5122063;27;45309;-60
2022/08/29 05:41:25;;;;;;;;;1.50;1.50;;;;;20.99;35.15;101260.06;5121841;27;45264;-60
2022/08/29 05:43:53;;;;;;;;;3.00;3.00;;;;;21.08;35.91;101277.44;5122255;27;45917;-60
2022/08/29 05:46:18;;;;;;;;;2.00;2.00;;;;;21.05;35.49;101281.13;5122210;27;45302;-61
2022/08/29 05:48:44;;;;;;;;;2.00;1.25;;;;;21.05;35.84;101280.28;5120949;27;45279;-60
2022/08/29 05:51:18;;;;;;;;;3.25;3.00;;;;;21.04;35.73;101287.44;5122034;27;45224;-61
2022/08/29 05:53:44;;;;;;;;;1.00;1.00;;;;;21.04;35.69;101275.88;5121928;27;46190;-61
2022/08/29 05:56:09;;;;;;;;;2.00;2.00;;;;;21.00;35.97;101269.81;5120842;27;45407;-61
2022/08/29 05:58:35;;;;;;;;;2.00;2.00;;;;;21.00;35.94;101274.31;5122161;27;45366;-60
2022/08/29 06:01:00;;;;;;;;;2.75;1.75;;;;;21.04;35.44;101281.22;5122244;27;45249;-61
2022/08/29 06:03:26;;;;;;;;;3.00;2.00;;;;;21.05;35.53;101289.16;5120807;27;45979;-61
2022/08/29 06:05:52;;;;;;;;;2.75;1.75;;;;;21.04;35.35;101287.44;5121816;27;45298;-61
2022/08/29 06:08:19;;;;;;;;;3.50;3.50;;;;;21.07;35.96;101281.09;5121483;27;45333;-61
2022/08/29 06:10:45;;;;;;;;;2.50;2.00;;;;;21.06;36.02;101282.88;5121645;27;45260;-61
2022/08/29 06:13:12;;;;;;;;;5.25;2.25;;;;;21.09;36.17;101281.84;5121640;27;46529;-61
2022/08/29 06:15:37;;;;;;;;;2.00;2.00;;;;;21.10;35.71;101291.59;5103084;27;45275;-61
2022/08/29 06:18:03;;;;;;;;;1.25;1.25;;;;;21.12;35.57;101295.09;5122010;27;45196;-61
2022/08/29 06:20:29;;;;;;;;;2.00;2.00;;;;;21.13;36.23;101287.91;5120855;27;45169;-62
2022/08/29 06:22:54;;;;;;;;;2.00;2.00;;;;;21.14;35.90;101301.19;5120300;27;47605;-61
2022/08/29 06:25:19;;;;;;;;;2.25;1.25;;;;;21.14;35.61;101298.53;5121447;27;45203;-61
2022/08/29 06:27:45;;;;;;;;;3.00;3.00;;;;;21.19;36.18;101309.84;5121747;27;45310;-61
2022/08/29 06:30:10;;;;;;;;;4.00;2.00;;;;;21.19;36.02;101301.81;5121468;27;45313;-61
2022/08/29 06:32:35;;;;;;;;;2.25;2.25;;;;;21.23;36.06;101299.88;5121890;27;46614;-62
2022/08/29 06:35:01;;;;;;;;;2.00;2.00;;;;;21.25;35.82;101308.69;5121423;27;45290;-61
2022/08/29 06:37:26;;;;;;;;;4.50;4.00;;;;;21.28;35.91;101308.50;5120891;27;45371;-61
2022/08/29 06:39:51;;;;;;;;;2.50;2.50;;;;;21.29;36.47;101296.88;5119966;27;46389;-61
2022/08/29 06:42:22;;;;;;;;;2.25;2.25;;;;;21.30;36.04;101301.28;5121245;27;46015;-61
2022/08/29 06:44:47;;;;;;;;;3.50;3.00;;;;;21.35;36.43;101304.59;5103545;27;45185;-61
2022/08/29 06:47:13;;;;;;;;;1.00;1.00;;;;;21.38;36.27;101306.25;5121548;27;45221;-61
2022/08/29 06:49:38;;;;;;;;;4.25;4.25;;;;;21.39;35.81;101308.84;5121256;27;45223;-61
2022/08/29 06:52:03;;;;;;;;;4.00;2.00;;;;;21.41;36.10;101306.97;5121254;27;47409;-61
2022/08/29 06:54:29;;;;;;;;;2.00;2.00;;;;;21.46;36.15;101305.84;5121025;27;45235;-61
2022/08/29 06:56:56;;;;;;;;;6.00;2.00;;;;;21.46;35.99;101305.84;5121568;27;45740;-61
2022/08/29 06:59:22;;;;;;;;;2.00;2.00;;;;;21.50;36.36;101310.97;5121057;27;45318;-61
2022/08/29 07:01:47;;;;;;;;;2.75;2.00;;;;;21.54;36.22;101306.34;5121176;27;46322;-61
2022/08/29 07:04:13;;;;;;;;;1.75;1.25;;;;;21.54;36.23;101309.88;5120939;27;45256;-61
2022/08/29 07:06:40;;;;;;;;;2.75;1.50;;;;;21.54;36.09;101307.19;5121373;27;45241;-61
2022/08/29 07:09:06;;;;;;;;;2.00;2.00;;;;;21.58;36.30;101310.59;5120793;27;45442;-62
2022/08/29 07:11:32;;;;;;;;;3.75;3.75;;;;;21.59;36.22;101309.66;5121044;27;46317;-61
2022/08/29 07:14:01;;;;;;;;;1.25;1.25;;;;;21.63;36.37;101321.94;5122265;27;45157;-61
2022/08/29 07:16:27;;;;;;;;;2.00;2.00;;;;;21.66;35.70;101321.78;5124865;27;45523;-62
2022/08/29 07:18:53;;;;;;;;;4.00;3.00;;;;;21.61;36.34;101297.09;5124596;27;45362;-61
2022/08/29 07:21:21;;;;;;;;;3.75;3.25;;;;;21.70;36.37;101307.31;5124508;27;46030;-61
2022/08/29 07:23:52;;;;;;;;;3.00;3.00;;;;;21.72;36.04;101310.78;5124150;27;45426;-61
2022/08/29 07:26:19;;;;;;;;;2.00;2.00;;;;;21.74;36.12;101308.00;5124717;27;45415;-61
2022/08/29 07:28:47;;;;;;;;;1.75;1.75;;;;;21.73;36.19;101306.28;5124386;27;45305;-61
2022/08/29 07:31:13;;;;;;;;;3.00;2.00;;;;;21.79;35.72;101313.97;5124295;27;46264;-62
2022/08/29 07:33:38;;;;;;;;;2.50;2.50;;;;;21.80;36.08;101310.38;5124508;27;45424;-61
2022/08/29 07:36:04;;;;;;;;;4.00;3.00;;;;;21.81;36.27;101314.78;5124245;27;47457;-61
2022/08/29 07:38:31;;;;;;;;;5.00;2.50;;;;;21.83;36.12;101312.88;5124037;27;45227;-61
2022/08/29 07:41:01;;;;;;;;;1.50;1.50;;;;;21.85;36.40;101316.34;5124255;27;45435;-61
2022/08/29 07:43:27;;;;;;;;;2.50;2.50;;;;;21.86;36.33;101319.88;5124253;27;45292;-61
2022/08/29 07:45:53;;;;;;;;;3.00;2.00;;;;;21.89;35.98;101314.38;5124200;27;45318;-61
2022/08/29 07:48:20;;;;;;;;;4.50;2.00;;;;;21.91;35.96;101320.47;5124156;27;45324;-61
2022/08/29 07:50:45;;;;;;;;;2.00;2.00;;;;;21.93;36.42;101321.28;5123816;27;47023;-61
2022/08/29 07:53:11;;;;;;;;;3.00;1.75;;;;;21.96;35.77;101320.25;5124084;27;45402;-61
2022/08/29 07:55:36;;;;;;;;;2.00;2.00;;;;;21.99;35.77;101323.63;5124123;27;45721;-61
2022/08/29 07:58:03;;;;;;;;;4.25;2.00;;;;;22.01;36.22;101321.75;5124048;27;45472;-61
2022/08/29 08:00:29;;;;;;;;;4.50;2.75;;;;;22.03;36.05;101314.47;5123409;27;45483;-61
2022/08/29 08:02:54;;;;;;;;;3.00;3.00;;;;;22.08;35.88;101315.09;5124117;27;45348;-61
2022/08/29 08:05:19;;;;;;;;;3.50;2.50;;;;;22.12;36.40;101313.13;5123750;27;48688;-61
2022/08/29 08:07:45;;;;;;;;;4.00;4.00;;;;;22.16;36.34;101305.81;5124208;27;45992;-61
2022/08/29 08:10:11;;;;;;;;;2.50;2.50;;;;;22.16;35.93;101301.34;5123378;27;46156;-61
2022/08/29 08:12:36;;;;;;;;;5.00;3.00;;;;;22.22;36.35;101308.16;5123588;27;45243;-61
2022/08/29 08:15:02;;;;;;;;;4.25;4.00;;;;;;;;5122518;27;45279;-61
2022/08/29 08:17:27;;;;;;;;;3.00;2.75;;;;;22.33;35.88;101313.78;5123812;27;45369;-61
2022/08/29 08:19:53;;;;;;;;;3.50;3.50;;;;;22.38;36.27;101308.22;5123433;27;46177;-61
2022/08/29 08:22:18;;;;;;;;;2.75;2.00;;;;;22.44;35.86;101312.34;5123899;27;45316;-61
2022/08/29 08:24:43;;;;;;;;;8.25;3.50;;;;;22.49;36.07;101303.13;5122586;27;45219;-62
2022/08/29 08:27:09;;;;;;;;;4.00;3.50;;;;;22.54;35.79;101292.13;5123297;27;45203;-61
2022/08/29 08:29:35;;;;;;;;;5.00;3.25;;;;;22.61;36.07;101295.34;5123370;27;46276;-61
2022/08/29 08:32:00;;;;;;;;;3.25;2.00;;;;;22.65;36.18;101295.06;5123412;27;47872;-61
2022/08/29 08:34:27;;;;;;;;;3.25;3.00;;;;;22.70;36.26;101298.38;5123620;27;45369;-61
2022/08/29 08:36:53;;;;;;;;;3.75;3.00;;;;;22.77;36.23;101300.72;5123049;27;46499;-62
2022/08/29 08:39:18;;;;;;;;;5.00;2.50;;;;;22.84;35.88;101307.44;5122920;27;45397;-62
2022/08/29 08:41:52;;;;;;;;;4.00;3.50;;;;;22.90;35.68;101309.78;5123356;27;45284;-62
2022/08/29 08:44:20;;;;;;;;;3.25;3.25;;;;;22.97;36.02;101313.84;5123249;27;45329;-62
2022/08/29 08:46:49;;;;;;;;;3.00;3.00;;;;;23.04;35.96;101304.50;5123237;27;45305;-62
2022/08/29 08:49:48;;;;;;;;;4.00;3.00;;;;;23.12;35.67;101309.41;5122910;27;46288;-62
2022/08/29 08:52:23;;;;;;;;;4.25;3.25;;;;;23.21;35.76;101308.03;5123008;27;45261;-62
2022/08/29 08:54:54;;;;;;;;;4.25;3.25;;;;;23.30;36.06;101302.13;5123104;27;45410;-62
2022/08/29 08:57:21;;;;;;;;;3.25;2.00;;;;;23.39;35.87;101302.53;5122881;27;45457;-61
2022/08/29 08:59:56;;;;;;;;;3.00;3.00;;;;;23.47;35.79;101302.94;5104582;27;47123;-62
2022/08/29 09:02:44;;;;;;;;;4.00;3.00;;;;;23.57;35.77;101305.94;5122849;27;45361;-62
2022/08/29 09:05:27;;;;;;;;;4.00;4.00;;;;;23.67;35.95;101310.66;5123114;27;45398;-62
2022/08/29 09:08:22;;;;;;;;;4.00;4.00;;;;;23.77;35.89;101310.09;5121639;27;45324;-62
2022/08/29 09:11:16;;;;;;;;;4.75;4.00;;;;;23.87;35.87;101311.25;5083727;27;46071;-61
2022/08/29 09:13:54;;;;;;;;;5.00;5.00;;;;;23.99;35.73;101310.53;5104202;27;45409;-62
2022/08/29 09:16:49;;;;;;;;;12.50;10.50;;;;;24.12;36.10;101304.41;5122882;27;45469;-62
2022/08/29 09:19:16;;;;;;;;;5.50;5.00;;;;;24.20;35.99;101291.38;5120886;27;45197;-62
2022/08/29 09:21:54;;;;;;;;;10.00;7.50;;;;;24.33;35.50;101303.03;5122419;27;45349;-60
2022/08/29 09:24:31;;;;;;;;;4.75;4.75;;;;;24.43;35.41;101292.56;5103146;27;45333;-61
2022/08/29 09:26:57;;;;;;;;;7.00;7.00;;;;;24.55;35.70;101296.28;5122398;27;45318;-61
2022/08/29 09:29:28;;;;;;;;;4.00;4.00;;;;;24.68;35.57;101299.09;5103645;27;45343;-61
2022/08/29 09:32:09;;;;;;;;;4.00;4.00;;;;;24.81;35.59;101301.81;5122476;27;47220;-61
2022/08/29 09:34:40;;;;;;;;;3.00;3.00;;;;;24.92;35.70;101299.28;5122519;27;45236;-61
2022/08/29 09:37:23;;;;;;;;;5.25;4.75;;;;;25.06;35.55;101302.91;5121919;27;45466;-62
2022/08/29 09:39:57;;;;;;;;;5.00;3.00;;;;;25.18;35.34;101293.97;5121864;27;45543;-61
2022/08/29 09:42:28;;;;;;;;;5.75;5.75;;;;;25.30;35.35;101292.31;5122047;27;46089;-62
2022/08/29 09:45:01;;;;;;;;;5.00;5.00;;;;;25.43;35.42;101292.34;5122392;27;45313;-61
2022/08/29 09:47:32;;;;;;;;;4.00;4.00;;;;;25.55;35.21;101290.69;5122195;27;45448;-62
2022/08/29 09:50:11;;;;;;;;;5.25;5.25;;;;;25.70;35.23;101288.72;5122093;27;45320;-61
2022/08/29 09:52:49;;;;;;;;;5.00;4.50;;;;;25.83;35.26;101291.44;5121994;27;45309;-61
2022/08/29 09:55:37;;;;;;;;;5.00;5.00;;;;;25.98;35.40;101293.03;5121425;27;45460;-61
2022/08/29 09:58:25;;;;;;;;;5.00;4.00;;;;;26.11;34.62;101283.16;5121996;27;45219;-61
2022/08/29 10:01:02;;;;;;;;;6.50;6.50;;;;;26.28;34.64;101287.31;5122002;27;45295;-62
2022/08/29 10:03:32;;;;;;;;;7.00;7.00;;;;;26.41;35.16;101286.44;5121877;27;45327;-61
2022/08/29 10:06:07;;;;;;;;;4.75;4.25;;;;;26.57;35.19;101289.72;5121990;27;45202;-61
2022/08/29 10:08:38;;;;;;;;;7.50;6.00;;;;;26.73;35.09;101286.78;5121754;27;45299;-60
2022/08/29 10:11:18;;;;;;;;;8.00;6.00;;;;;26.86;34.84;101281.34;5103300;27;45347;-60
2022/08/29 10:13:52;;;;;;;;;4.75;3.25;;;;;27.03;34.07;101288.19;5121408;27;47074;-62
2022/08/29 10:16:25;;;;;;;;;8.00;7.75;;;;;27.19;34.91;101292.41;5121787;27;45313;-61
2022/08/29 10:19:02;;;;;;;;;6.25;6.25;;;;;27.37;34.24;101293.69;5121808;27;45353;-61
2022/08/29 10:21:33;;;;;;;;;10.75;8.50;;;;;27.54;34.53;101286.16;5121470;27;45551;-61
2022/08/29 10:24:04;;;;;;;;;9.00;7.00;;;;;27.71;34.28;101287.53;5121580;27;45402;-61
2022/08/29 10:26:47;;;;;;;;;4.25;4.25;;;;;27.89;33.86;101282.53;5121561;27;45246;-61
2022/08/29 10:29:49;;;;;;;;;6.00;5.00;;;;;28.09;33.88;101282.78;5121549;27;45383;-61
2022/08/29 10:32:33;;;;;;;;;6.00;6.00;;;;;28.29;33.63;101278.47;5121555;27;45368;-61
2022/08/29 10:35:10;;;;;;;;;6.50;4.75;;;;;28.51;33.97;101275.75;5121355;27;45384;-61
2022/08/29 10:37:38;;;;;;;;;7.25;6.50;;;;;28.70;33.81;101269.72;5121389;27;45432;-61
2022/08/29 10:40:22;;;;;;;;;4.50;4.25;;;;;28.91;33.87;101274.31;5121404;27;45165;-61
2022/08/29 10:42:50;;;;;;;;;7.00;7.00;;;;;29.14;33.63;101280.47;5121223;27;45318;-61
2022/08/29 10:45:56;;;;;;;;;6.00;5.00;;;;;29.37;33.60;101266.91;5120012;27;45943;-61
2022/08/29 10:49:07;;;;;;;;;4.00;4.00;;;;;29.71;33.45;101265.78;5120309;27;45271;-61
2022/08/29 10:51:45;;;;;;;;;6.25;6.25;;;;;30.05;33.54;101261.00;5100380;27;45375;-61
2022/08/29 10:54:32;;;;;;;;;5.00;5.00;;;;;30.47;33.44;101265.41;5121077;27;45487;-61
2022/08/29 10:56:58;;;;;;;;;5.00;5.00;;;;;30.93;33.77;101261.19;5119783;27;46091;-61
2022/08/29 10:59:47;;;;;;;;;6.75;5.75;;;;;31.43;33.91;101262.03;5120937;27;45264;-61
2022/08/29 11:02:36;;;;;;;;;7.00;5.50;;;;;32.07;33.80;101262.28;5121213;27;45438;-61
2022/08/29 11:05:14;;;;;;;;;5.75;5.75;;;;;32.62;33.35;101264.13;5121050;27;45496;-61
2022/08/29 11:07:49;;;;;;;;;5.75;5.25;;;;;33.23;33.71;101261.63;5120771;27;46178;-62
2022/08/29 11:10:23;;;;;;;;;8.25;6.50;;;;;33.81;33.68;101271.09;5120726;27;45376;-63
2022/08/29 11:12:54;;;;;;;;;6.25;4.75;;;;;34.36;33.06;101263.50;5121002;27;45372;-62
2022/08/29 11:15:36;;;;;;;;;4.50;3.00;;;;;34.86;32.71;101259.03;5120781;27;45246;-61
2022/08/29 11:18:09;;;;;;;;;5.75;5.25;;;;;35.33;32.28;101271.13;5120824;27;46223;-61
2022/08/29 11:20:40;;;;;;;;;4.00;3.75;;;;;35.75;31.53;101263.72;5119477;27;45474;-62
2022/08/29 11:23:25;;;;;;;;;0.75;0.75;;;;;36.19;31.75;101267.84;5119324;27;45354;-61
2022/08/29 11:25:51;;;;;;;;;6.75;6.75;;;;;36.60;30.96;101259.44;5120700;27;45283;-62
2022/08/29 11:28:39;;;;;;;;;5.50;5.50;;;;;36.99;30.81;101247.53;5120332;27;46280;-62
2022/08/29 11:31:51;;;;;;;;;5.00;5.00;;;;;37.45;30.72;101252.09;5120797;27;45448;-62
2022/08/29 11:34:41;;;;;;;;;7.50;6.00;;;;;37.78;30.13;101251.72;5083774;27;45417;-61
2022/08/29 11:37:25;;;;;;;;;4.75;4.75;;;;;38.03;29.42;101254.19;5120540;27;45488;-61
2022/08/29 11:40:28;;;;;;;;;5.75;5.75;;;;;38.20;28.95;101252.94;5120057;27;45276;-61
2022/08/29 11:42:58;;;;;;;;;8.25;7.00;;;;;38.34;29.01;101253.09;5120262;27;45272;-61